Time;durP1;ratioP1;P1;durP2;ratioP2;P2;SDS_P1;SDS_P2;PMS_P1;PMS_P2;Temp;Humidity;BMP_temperature;BMP_pressure;BME280_temperature;BME280_humidity;BME280_pressure;Samples;Min_cycle;Max_cycle;Signal;HPM_P1;HPM_P2
2021/12/25 00:01:33;;;;;;;4.20;3.00;;;;;;;6.40;99.89;95642.66;5064692;28;20207;-70
2021/12/25 00:03:59;;;;;;;3.60;3.30;;;;;;;6.33;100.00;95640.72;5074496;28;20183;-69
2021/12/25 00:06:27;;;;;;;3.33;3.03;;;;;;;6.35;100.00;95633.53;5063811;28;20210;-71
2021/12/25 00:08:54;;;;;;;3.93;3.63;;;;;;;6.39;100.00;95625.22;5075743;28;20203;-71
2021/12/25 00:11:20;;;;;;;4.10;3.70;;;;;;;6.41;100.00;95625.91;5069959;28;20230;-70
2021/12/25 00:13:47;;;;;;;3.80;3.50;;;;;;;6.34;100.00;95631.91;5067650;28;20575;-71
2021/12/25 00:16:13;;;;;;;4.37;3.70;;;;;;;6.33;100.00;95630.22;5075635;28;20210;-70
2021/12/25 00:18:40;;;;;;;3.83;3.47;;;;;;;6.37;100.00;95631.59;5063695;28;20312;-71
2021/12/25 00:21:07;;;;;;;4.27;3.90;;;;;;;6.38;100.00;95628.81;5073715;28;20202;-70
2021/12/25 00:23:36;;;;;;;3.87;3.57;;;;;;;6.41;100.00;95619.84;5081770;28;20653;-71
2021/12/25 00:26:07;;;;;;;4.73;4.23;;;;;;;6.38;100.00;95631.44;5088567;28;20199;-70
2021/12/25 00:28:53;;;;;;;4.13;3.73;;;;;;;6.29;100.00;95634.09;5073466;28;20211;-70
2021/12/25 00:31:31;;;;;;;4.10;3.73;;;;;;;6.34;100.00;95639.78;5064524;28;20218;-70
2021/12/25 00:34:00;;;;;;;5.07;4.20;;;;;;;6.39;100.00;95627.03;5054481;28;20269;-70
2021/12/25 00:36:27;;;;;;;8.47;7.43;;;;;;;6.43;100.00;95633.66;5059260;28;20214;-69
2021/12/25 00:38:55;;;;;;;9.47;6.90;;;;;;;6.47;100.00;95632.41;5063735;28;20225;-69
2021/12/25 00:41:23;;;;;;;7.40;6.47;;;;;;;6.52;100.00;95624.09;5066334;28;20218;-70
2021/12/25 00:43:50;;;;;;;6.47;5.60;;;;;;;6.48;100.00;95623.56;5081540;28;20210;-71
2021/12/25 00:46:17;;;;;;;6.17;5.57;;;;;;;6.43;100.00;95616.09;5099204;28;20269;-70
2021/12/25 00:48:45;;;;;;;6.63;5.47;;;;;;;6.36;100.00;95619.44;5053592;28;20222;-70
2021/12/25 00:51:12;;;;;;;6.30;5.20;;;;;;;6.33;100.00;95620.56;5059120;28;20207;-69
2021/12/25 00:53:38;;;;;;;5.43;4.93;;;;;;;6.25;100.00;95617.81;5058817;28;20218;-70
2021/12/25 00:56:06;;;;;;;4.60;4.20;;;;;;;6.23;100.00;95613.69;5072425;28;20229;-69
2021/12/25 00:58:33;;;;;;;3.50;3.20;;;;;;;6.18;99.87;95610.63;5078232;28;20210;-70
2021/12/25 01:00:59;;;;;;;4.10;3.70;;;;;;;6.17;100.00;95612.44;5057671;28;20207;-69
2021/12/25 01:03:25;;;;;;;4.40;4.00;;;;;;;6.09;100.00;95607.09;5070665;28;20618;-70
2021/12/25 01:05:52;;;;;;;6.10;3.53;;;;;;;6.07;100.00;95608.16;5064105;28;20200;-70
2021/12/25 01:08:19;;;;;;;3.80;3.10;;;;;;;6.09;100.00;95606.25;5078669;28;20218;-70
2021/12/25 01:10:45;;;;;;;4.03;3.57;;;;;;;6.08;100.00;95609.84;5079382;28;20191;-70
2021/12/25 01:13:20;;;;;;;3.80;3.50;;;;;;;6.07;99.96;95618.66;5079142;28;20229;-70
2021/12/25 01:15:58;;;;;;;3.60;3.30;;;;;;;6.06;100.00;95609.16;5079412;28;20229;-70
2021/12/25 01:24:13;;;;;;;3.47;3.17;;;;;;;6.06;100.00;95611.78;5060149;28;20198;-70
2021/12/25 01:27:00;;;;;;;3.07;2.63;;;;;;;6.04;100.00;95609.28;5059689;28;20192;-70
2021/12/25 01:29:45;;;;;;;3.37;3.13;;;;;;;6.05;100.00;95603.06;5059573;28;20184;-71
2021/12/25 01:35:17;;;;;;;4.60;3.73;;;;;;;5.98;100.00;95610.69;5058445;28;20214;-70
2021/12/25 01:37:56;;;;;;;3.90;3.60;;;;;;;5.92;100.00;95607.78;5067659;28;20234;-69
2021/12/25 01:40:44;;;;;;;5.03;4.50;;;;;;;5.97;100.00;95608.19;5095775;28;20249;-70
2021/12/25 01:48:42;;;;;;;3.53;3.33;;;;;;;6.00;100.00;95623.66;5044785;28;20213;-69
2021/12/25 01:51:09;;;;;;;4.27;3.27;;;;;;;6.02;100.00;95624.34;5066405;28;20203;-71
2021/12/25 01:53:36;;;;;;;3.43;3.20;;;;;;;5.99;100.00;95607.06;5045475;28;20222;-70
2021/12/25 01:56:04;;;;;;;4.33;3.93;;;;;;;6.05;100.00;95605.69;5070546;28;20602;-69
2021/12/25 01:58:31;;;;;;;4.07;3.23;;;;;;;6.09;100.00;95606.25;5043999;28;20207;-70
2021/12/25 02:00:59;;;;;;;3.97;3.57;;;;;;;6.02;100.00;95594.66;5057314;28;20207;-70
2021/12/25 02:03:29;;;;;;;3.80;3.50;;;;;;;6.00;100.00;95593.00;5057014;28;20211;-70
2021/12/25 02:05:56;;;;;;;3.60;3.30;;;;;;;6.06;100.00;95599.47;5056692;28;20249;-71
2021/12/25 02:08:23;;;;;;;4.50;3.33;;;;;;;6.07;100.00;95595.03;5064518;28;20207;-69
2021/12/25 02:10:50;;;;;;;3.87;3.50;;;;;;;6.08;100.00;95584.41;5076175;28;20221;-70
2021/12/25 02:13:17;;;;;;;4.17;3.77;;;;;;;6.13;100.00;95591.88;5076465;28;20210;-71
2021/12/25 02:15:46;;;;;;;3.30;3.00;;;;;;;6.13;100.00;95581.38;5063456;28;20265;-69
2021/12/25 02:18:21;;;;;;;3.87;3.33;;;;;;;6.17;100.00;95582.72;5056122;28;20698;-70
2021/12/25 02:20:54;;;;;;;3.40;3.20;;;;;;;6.15;100.00;95584.69;5056472;28;20199;-70
2021/12/25 02:23:23;;;;;;;4.17;2.93;;;;;;;6.18;100.00;95584.38;5056043;28;20300;-70
2021/12/25 02:25:50;;;;;;;3.10;2.90;;;;;;;6.16;100.00;95588.97;5056361;28;20211;-70
2021/12/25 02:28:17;;;;;;;3.57;3.30;;;;;;;6.16;100.00;95591.59;5055989;28;20207;-71
2021/12/25 02:30:47;;;;;;;3.57;3.27;;;;;;;6.14;100.00;95589.09;5055567;28;20595;-69
2021/12/25 02:33:15;;;;;;;3.80;3.50;;;;;;;6.15;100.00;95582.88;5056657;28;20573;-71
2021/12/25 02:35:42;;;;;;;3.77;3.50;;;;;;;6.16;100.00;95584.53;5055922;28;20300;-70
2021/12/25 02:38:10;;;;;;;4.30;3.90;;;;;;;6.17;100.00;95585.34;5056390;28;20223;-70
2021/12/25 02:40:36;;;;;;;4.57;4.20;;;;;;;6.23;100.00;95585.63;5055494;28;20249;-70
2021/12/25 02:43:03;;;;;;;4.30;4.00;;;;;;;6.25;100.00;95581.06;5056687;28;20222;-70
2021/12/25 02:45:30;;;;;;;4.60;4.20;;;;;;;6.24;100.00;95578.56;5056361;28;20512;-69
2021/12/25 02:47:57;;;;;;;4.40;4.00;;;;;;;6.16;100.00;95584.53;5056022;28;20511;-69
2021/12/25 02:50:25;;;;;;;4.10;3.80;;;;;;;6.13;100.00;95586.63;5056129;28;20207;-71
2021/12/25 02:52:52;;;;;;;4.57;4.17;;;;;;;6.11;100.00;95583.28;5056340;28;20251;-70
2021/12/25 02:55:20;;;;;;;3.77;3.47;;;;;;;6.10;100.00;95586.88;5063662;28;20226;-69
2021/12/25 02:57:50;;;;;;;3.87;3.57;;;;;;;6.07;100.00;95585.38;5060477;28;20211;-69
2021/12/25 03:00:18;;;;;;;4.40;4.00;;;;;;;6.10;100.00;95585.09;5055618;28;20203;-70
2021/12/25 03:02:44;;;;;;;4.20;3.90;;;;;;;6.11;100.00;95588.53;5056011;28;20312;-70
2021/12/25 03:05:11;;;;;;;4.47;4.17;;;;;;;6.08;100.00;95573.09;5055738;28;20191;-69
2021/12/25 03:07:37;;;;;;;4.27;3.87;;;;;;;6.05;100.00;95574.22;5055506;28;20210;-70
2021/12/25 03:10:05;;;;;;;4.17;3.80;;;;;;;5.99;100.00;95569.50;5056199;28;20214;-70
2021/12/25 03:12:37;;;;;;;4.20;3.90;;;;;;;5.95;100.00;95573.41;5072682;28;20504;-70
2021/12/25 03:15:12;;;;;;;4.10;3.80;;;;;;;5.99;100.00;95580.00;5065891;28;20223;-72
2021/12/25 03:17:38;;;;;;;3.60;3.30;;;;;;;5.97;100.00;95572.28;5055642;28;20463;-69
2021/12/25 03:20:07;;;;;;;3.90;3.53;;;;;;;5.89;100.00;95566.91;5056064;28;20233;-70
2021/12/25 03:22:34;;;;;;;4.13;3.43;;;;;;;5.96;100.00;95569.78;5074496;28;20206;-70
2021/12/25 03:25:00;;;;;;;3.70;3.40;;;;;;;5.98;100.00;95558.22;5071061;28;20199;-71
2021/12/25 03:27:28;;;;;;;3.93;3.47;;;;;;;6.04;100.00;95562.03;5073196;28;20214;-71
2021/12/25 03:29:56;;;;;;;3.90;3.60;;;;;;;6.00;100.00;95577.25;5071329;28;20217;-69
2021/12/25 03:32:22;;;;;;;4.13;3.77;;;;;;;5.93;100.00;95568.28;5084005;28;20228;-70
2021/12/25 03:34:49;;;;;;;5.13;3.63;;;;;;;5.95;100.00;95563.72;5061397;28;20217;-70
2021/12/25 03:37:15;;;;;;;3.80;3.50;;;;;;;5.95;100.00;95563.72;5048091;28;20203;-69
2021/12/25 03:39:42;;;;;;;4.10;3.70;;;;;;;5.98;100.00;95558.22;5063502;28;20235;-69
2021/12/25 03:42:09;;;;;;;4.40;4.00;;;;;;;5.99;100.00;95553.75;5062569;28;20537;-70
2021/12/25 03:44:36;;;;;;;4.50;4.00;;;;;;;5.96;100.00;95568.00;5061990;28;20233;-70
2021/12/25 03:47:12;;;;;;;4.07;3.77;;;;;;;5.90;99.94;95562.50;5061859;28;20225;-71
2021/12/25 03:58:02;;;;;;;4.00;3.70;;;;;;;5.60;99.99;95565.28;5058780;28;20218;-71
2021/12/25 04:00:31;;;;;;;3.90;3.50;;;;;;;5.59;100.00;95551.31;5054855;28;20489;-70
2021/12/25 04:03:04;;;;;;;3.97;3.70;;;;;;;5.63;100.00;95550.09;5055103;28;20586;-69
2021/12/25 04:05:33;;;;;;;4.50;4.10;;;;;;;5.66;100.00;95543.72;5054776;28;20282;-70
2021/12/25 04:08:04;;;;;;;4.47;4.07;;;;;;;5.58;100.00;95544.41;5059756;28;20203;-69
2021/12/25 04:10:34;;;;;;;4.17;3.87;;;;;;;5.51;100.00;95551.19;5064447;28;20466;-69
2021/12/25 04:13:00;;;;;;;4.20;3.80;;;;;;;5.53;100.00;95541.38;5078544;28;20681;-70
2021/12/25 04:15:27;;;;;;;3.80;3.50;;;;;;;5.56;100.00;95532.41;5065683;28;20234;-70
2021/12/25 04:17:53;;;;;;;4.00;3.70;;;;;;;5.49;100.00;95532.16;5059016;28;20214;-69
2021/12/25 04:20:21;;;;;;;3.80;3.50;;;;;;;5.50;100.00;95541.66;5058457;28;20207;-70
2021/12/25 04:22:53;;;;;;;3.67;3.37;;;;;;;5.49;100.00;95538.19;5058846;28;20272;-69
2021/12/25 04:25:26;;;;;;;3.33;3.10;;;;;;;5.54;100.00;95540.41;5058664;28;20563;-70
2021/12/25 04:27:52;;;;;;;3.30;3.00;;;;;;;5.58;100.00;95535.72;5054034;28;20203;-69
2021/12/25 04:30:28;;;;;;;3.60;3.30;;;;;;;5.59;100.00;95538.22;5078415;28;20230;-70
2021/12/25 04:33:28;;;;;;;3.83;3.53;;;;;;;5.61;100.00;95538.88;5071372;28;20203;-70
2021/12/25 04:50:09;;;;;;;3.50;3.27;;;;;;;5.38;100.00;95574.25;5057981;28;20230;-71
2021/12/25 05:03:45;;;;;;;4.07;3.77;;;;;;;5.46;100.00;95582.22;5046775;28;20213;-70
2021/12/25 05:06:12;;;;;;;4.17;3.80;;;;;;;5.44;100.00;95576.31;5057919;28;20210;-69
2021/12/25 05:08:40;;;;;;;4.43;3.90;;;;;;;5.51;100.00;95569.53;5057848;28;20280;-71
2021/12/25 05:11:06;;;;;;;4.70;4.30;;;;;;;5.47;100.00;95573.41;5057320;28;20210;-71
2021/12/25 05:13:33;;;;;;;4.60;4.20;;;;;;;5.46;100.00;95569.94;5057476;28;20554;-69
2021/12/25 05:16:00;;;;;;;4.47;4.17;;;;;;;5.42;100.00;95565.13;5057526;28;20304;-70
2021/12/25 05:18:26;;;;;;;4.80;4.40;;;;;;;5.37;100.00;95576.03;5057845;28;20219;-70
2021/12/25 05:20:53;;;;;;;4.53;4.23;;;;;;;5.37;100.00;95573.41;5064093;28;20228;-70
2021/12/25 05:23:19;;;;;;;4.33;3.93;;;;;;;5.41;100.00;95579.19;5091333;28;20476;-71
2021/12/25 05:25:49;;;;;;;4.73;4.33;;;;;;;5.40;100.00;95582.78;5058733;28;20206;-69
2021/12/25 05:28:23;;;;;;;4.50;4.10;;;;;;;5.45;100.00;95576.19;5058084;28;20238;-70
2021/12/25 05:30:50;;;;;;;3.90;3.50;;;;;;;5.50;100.00;95567.88;5057419;28;20202;-70
2021/12/25 05:33:16;;;;;;;3.50;3.30;;;;;;;5.50;100.00;95560.84;5057631;28;20637;-70
2021/12/25 05:35:43;;;;;;;4.20;3.90;;;;;;;5.55;100.00;95562.22;5056823;28;20233;-70
2021/12/25 05:38:14;;;;;;;4.97;4.53;;;;;;;5.54;100.00;95558.78;5057875;28;20222;-70
2021/12/25 05:40:40;;;;;;;3.90;3.50;;;;;;;5.36;100.00;95550.78;5063421;28;20245;-70
2021/12/25 05:43:08;;;;;;;6.20;4.07;;;;;;;5.36;100.00;95571.75;5077631;28;20206;-71
2021/12/25 05:45:34;;;;;;;4.50;4.10;;;;;;;5.27;100.00;95558.63;5043828;28;20191;-70
2021/12/25 05:48:01;;;;;;;4.07;3.67;;;;;;;5.30;100.00;95566.22;5043757;28;20219;-69
2021/12/25 05:50:27;;;;;;;4.63;4.23;;;;;;;5.34;100.00;95559.75;5057633;28;20211;-70
2021/12/25 05:52:55;;;;;;;4.67;4.27;;;;;;;5.34;100.00;95568.44;5057714;28;20210;-69
2021/12/25 05:55:22;;;;;;;4.50;4.10;;;;;;;5.34;100.00;95562.38;5056771;28;20549;-69
2021/12/25 05:57:48;;;;;;;4.87;4.37;;;;;;;5.37;100.00;95562.09;5056939;28;20637;-70
2021/12/25 06:00:17;;;;;;;4.70;4.00;;;;;;;5.35;100.00;95558.78;5055209;28;20203;-70
2021/12/25 06:02:44;;;;;;;5.20;4.27;;;;;;;5.38;100.00;95566.38;5057248;28;20214;-70
2021/12/25 06:05:11;;;;;;;6.37;4.60;;;;;;;5.41;100.00;95572.16;5056738;28;20214;-70
2021/12/25 06:07:37;;;;;;;5.10;4.70;;;;;;;5.39;100.00;95568.84;5057567;28;20235;-70
2021/12/25 06:10:07;;;;;;;4.63;4.23;;;;;;;5.46;100.00;95572.56;5076699;28;20206;-70
2021/12/25 06:12:36;;;;;;;4.53;4.13;;;;;;;5.48;100.00;95581.13;5066517;28;20623;-70
2021/12/25 06:15:04;;;;;;;4.70;4.40;;;;;;;5.52;100.00;95589.56;5056683;28;20211;-70
2021/12/25 06:17:32;;;;;;;4.77;4.37;;;;;;;5.55;100.00;95591.06;5056174;28;20230;-71
2021/12/25 06:19:58;;;;;;;4.83;4.40;;;;;;;5.61;100.00;95596.59;5066577;28;20202;-71
2021/12/25 06:22:25;;;;;;;5.17;4.63;;;;;;;5.64;100.00;95590.22;5060255;28;20586;-70
2021/12/25 06:24:51;;;;;;;4.50;4.10;;;;;;;5.66;100.00;95594.38;5057366;28;20207;-70
2021/12/25 06:27:18;;;;;;;4.77;4.37;;;;;;;5.66;100.00;95594.38;5056890;28;20207;-71
2021/12/25 06:29:45;;;;;;;4.37;4.03;;;;;;;5.65;100.00;95597.13;5056779;28;20203;-70
2021/12/25 06:32:11;;;;;;;4.30;4.00;;;;;;;5.69;100.00;95604.59;5059082;28;20219;-70
2021/12/25 06:34:39;;;;;;;4.60;4.20;;;;;;;5.73;100.00;95599.91;5059700;28;20203;-71
2021/12/25 06:37:06;;;;;;;5.30;4.80;;;;;;;5.70;100.00;95608.88;5075873;28;20227;-70
2021/12/25 06:39:32;;;;;;;4.33;4.00;;;;;;;5.72;100.00;95601.69;5081819;28;20253;-70
2021/12/25 06:41:59;;;;;;;4.73;4.23;;;;;;;5.74;100.00;95610.25;5084496;28;20270;-70
2021/12/25 06:44:27;;;;;;;4.63;4.23;;;;;;;5.75;100.00;95606.66;5093525;28;20214;-71
2021/12/25 06:46:54;;;;;;;4.97;4.57;;;;;;;5.78;100.00;95618.66;5090227;28;20206;-70
2021/12/25 06:49:21;;;;;;;4.87;4.47;;;;;;;5.81;100.00;95613.16;5071630;28;20207;-69
2021/12/25 06:51:49;;;;;;;4.53;4.20;;;;;;;5.85;100.00;95609.25;5070288;28;20215;-70
2021/12/25 06:54:16;;;;;;;4.67;4.30;;;;;;;5.84;100.00;95611.09;5055884;28;20200;-71
2021/12/25 06:56:44;;;;;;;4.97;4.57;;;;;;;5.83;100.00;95600.72;5056081;28;20222;-70
2021/12/25 06:59:11;;;;;;;5.07;4.67;;;;;;;5.82;100.00;95610.38;5055686;28;20586;-70
2021/12/25 07:01:38;;;;;;;5.00;4.43;;;;;;;5.86;100.00;95601.31;5056421;28;20290;-70
2021/12/25 07:04:06;;;;;;;4.30;4.00;;;;;;;5.90;100.00;95586.94;5056192;28;20211;-70
2021/12/25 07:06:33;;;;;;;4.93;4.50;;;;;;;5.92;100.00;95577.13;5055901;28;20638;-70
2021/12/25 07:09:01;;;;;;;4.80;4.50;;;;;;;5.93;100.00;95578.78;5068585;28;20216;-70
2021/12/25 07:11:28;;;;;;;5.00;4.50;;;;;;;5.94;100.00;95588.31;5074406;28;20238;-69
2021/12/25 07:13:56;;;;;;;4.83;4.47;;;;;;;5.89;100.00;95585.28;5056125;28;20542;-70
2021/12/25 07:16:22;;;;;;;5.30;4.80;;;;;;;5.91;100.00;95579.91;5055255;28;20226;-70
2021/12/25 07:18:49;;;;;;;5.87;5.07;;;;;;;5.95;100.00;95584.69;5055792;28;20214;-71
2021/12/25 07:21:15;;;;;;;4.80;4.40;;;;;;;5.87;100.00;95584.59;5064256;28;20199;-70
2021/12/25 07:23:41;;;;;;;5.03;4.63;;;;;;;5.86;100.00;95580.31;5075489;28;20199;-71
2021/12/25 07:26:09;;;;;;;4.97;4.60;;;;;;;5.81;100.00;95572.00;5092550;28;20206;-70
2021/12/25 07:28:36;;;;;;;4.77;4.37;;;;;;;5.87;100.00;95568.03;5075855;28;20206;-69
2021/12/25 07:31:03;;;;;;;5.17;4.77;;;;;;;5.92;100.00;95566.63;5075876;28;20217;-70
2021/12/25 07:33:29;;;;;;;5.10;4.60;;;;;;;5.99;100.00;95565.09;5070015;28;20206;-71
2021/12/25 07:35:57;;;;;;;4.57;4.27;;;;;;;6.00;99.50;95566.75;5074619;28;20217;-70
2021/12/25 07:38:24;;;;;;;5.03;4.70;;;;;;;5.99;100.00;95554.59;5061265;28;20577;-71
2021/12/25 07:40:51;;;;;;;4.90;4.50;;;;;;;6.00;100.00;95564.13;5055078;28;20245;-71
2021/12/25 07:43:19;;;;;;;5.13;4.27;;;;;;;6.05;100.00;95576.00;5055181;28;20202;-70
2021/12/25 07:45:47;;;;;;;4.73;4.33;;;;;;;6.03;100.00;95559.56;5055163;28;20203;-70
2021/12/25 07:48:13;;;;;;;4.60;4.20;;;;;;;6.14;100.00;95557.59;5055133;28;20203;-69
2021/12/25 07:50:40;;;;;;;3.83;3.60;;;;;;;6.18;99.99;95558.13;5055297;28;20211;-69
2021/12/25 07:53:07;;;;;;;3.73;3.43;;;;;;;6.20;99.09;95562.28;5054754;28;20209;-70
2021/12/25 07:55:34;;;;;;;4.80;3.80;;;;;;;6.26;99.43;95566.13;5063696;28;20198;-69
2021/12/25 07:58:01;;;;;;;4.60;4.23;;;;;;;6.27;98.24;95573.06;5062467;28;20611;-70
2021/12/25 08:00:28;;;;;;;4.30;4.00;;;;;;;6.26;99.51;95581.88;5054739;28;20203;-71
2021/12/25 08:02:55;;;;;;;3.63;3.43;;;;;;;6.23;99.37;95577.75;5054935;28;20227;-70
2021/12/25 08:05:22;;;;;;;4.07;3.60;;;;;;;6.26;98.97;95574.00;5054566;28;20215;-70
2021/12/25 08:07:49;;;;;;;3.50;3.30;;;;;;;6.34;99.50;95582.81;5054839;28;20240;-71
2021/12/25 08:10:19;;;;;;;3.50;3.20;;;;;;;6.38;98.81;95588.59;5064758;28;20210;-71
2021/12/25 08:12:48;;;;;;;3.93;3.57;;;;;;;6.39;98.27;95592.91;5063243;28;20222;-70
2021/12/25 08:15:16;;;;;;;3.93;3.63;;;;;;;6.36;98.46;95594.03;5054653;28;20498;-69
2021/12/25 08:17:44;;;;;;;3.70;3.40;;;;;;;6.33;99.05;95591.69;5054546;28;20223;-70
2021/12/25 08:20:11;;;;;;;3.83;3.50;;;;;;;6.36;99.38;95587.94;5054780;28;20214;-69
2021/12/25 08:22:38;;;;;;;3.67;3.37;;;;;;;6.38;99.15;95594.69;5053881;28;20285;-70
2021/12/25 08:25:05;;;;;;;4.07;3.77;;;;;;;6.36;98.64;95599.28;5054363;28;20206;-69
2021/12/25 08:27:32;;;;;;;3.50;3.20;;;;;;;6.42;99.25;95592.59;5054449;28;20565;-70
2021/12/25 08:29:59;;;;;;;3.30;3.00;;;;;;;6.45;99.16;95589.69;5054744;28;20627;-72
2021/12/25 08:32:25;;;;;;;3.77;3.47;;;;;;;6.42;98.12;95593.44;5054323;28;20206;-71
2021/12/25 08:34:54;;;;;;;3.90;3.60;;;;;;;6.36;99.79;95596.66;5054709;28;20214;-70
2021/12/25 08:37:23;;;;;;;3.50;3.30;;;;;;;6.35;100.00;95596.78;5054358;28;20230;-69
2021/12/25 08:39:50;;;;;;;4.20;3.33;;;;;;;6.41;99.85;95596.22;5054472;28;20293;-71
2021/12/25 08:42:16;;;;;;;3.77;3.47;;;;;;;6.34;99.72;95606.44;5054586;28;20207;-70
2021/12/25 08:44:54;;;;;;;3.80;3.60;;;;;;;6.36;100.00;95593.19;5054620;28;20207;-69
2021/12/25 08:47:21;;;;;;;4.10;3.77;;;;;;;6.38;100.00;95607.81;5038428;28;20200;-71
2021/12/25 08:49:48;;;;;;;4.00;3.70;;;;;;;6.42;100.00;95621.47;5050095;28;20585;-70
2021/12/25 08:52:17;;;;;;;3.80;3.50;;;;;;;6.46;100.00;95626.31;5055580;28;20268;-69
2021/12/25 08:54:45;;;;;;;3.80;3.50;;;;;;;6.49;100.00;95619.94;5056756;28;20633;-70
2021/12/25 08:57:12;;;;;;;4.27;3.87;;;;;;;6.49;100.00;95583.19;5070379;28;20226;-71
2021/12/25 08:59:40;;;;;;;3.83;3.53;;;;;;;6.54;100.00;95607.22;5058456;28;20214;-69
2021/12/25 09:02:11;;;;;;;6.03;3.83;;;;;;;6.63;100.00;95593.22;5058138;28;20206;-69
2021/12/25 09:04:38;;;;;;;3.90;3.60;;;;;;;6.68;100.00;95583.13;5056592;28;20203;-70
2021/12/25 09:07:07;;;;;;;3.93;3.63;;;;;;;6.74;100.00;95586.94;5058869;28;20203;-70
2021/12/25 09:09:35;;;;;;;5.70;3.70;;;;;;;6.75;100.00;95594.69;5059608;28;20195;-71
2021/12/25 09:12:01;;;;;;;4.17;3.67;;;;;;;6.80;100.00;95587.19;5058886;28;20199;-70
2021/12/25 09:14:28;;;;;;;4.03;3.70;;;;;;;6.80;100.00;95587.19;5059233;28;20211;-70
2021/12/25 09:16:54;;;;;;;3.90;3.60;;;;;;;6.83;100.00;95584.28;5058001;28;20662;-70
2021/12/25 09:19:21;;;;;;;3.90;3.60;;;;;;;6.81;100.00;95594.09;5057901;28;20533;-71
2021/12/25 09:21:47;;;;;;;3.73;3.40;;;;;;;6.80;100.00;95596.91;5058609;28;20214;-70
2021/12/25 09:24:15;;;;;;;3.50;3.30;;;;;;;6.78;100.00;95594.41;5082277;28;20318;-69
2021/12/25 09:26:43;;;;;;;4.57;4.00;;;;;;;6.81;100.00;95602.00;5076876;28;20203;-70
2021/12/25 09:29:10;;;;;;;4.00;3.60;;;;;;;6.81;100.00;95593.28;5074251;28;20210;-70
2021/12/25 09:31:37;;;;;;;7.77;4.20;;;;;;;6.82;100.00;95590.50;5080089;28;20531;-70
2021/12/25 09:34:03;;;;;;;5.23;4.73;;;;;;;6.84;100.00;95598.22;5080331;28;20217;-69
2021/12/25 09:36:31;;;;;;;7.27;6.43;;;;;;;6.86;100.00;95602.41;5059010;28;20215;-70
2021/12/25 09:38:58;;;;;;;7.13;6.43;;;;;;;6.79;100.00;95595.22;5058362;28;20230;-70
2021/12/25 09:41:24;;;;;;;9.17;6.80;;;;;;;6.75;100.00;95593.88;5059400;28;20214;-68
2021/12/25 09:43:52;;;;;;;7.53;6.40;;;;;;;6.72;100.00;95595.00;5058964;28;20207;-70
2021/12/25 09:46:20;;;;;;;7.57;5.83;;;;;;;6.72;100.00;95584.47;5071118;28;20202;-69
2021/12/25 09:48:47;;;;;;;7.63;6.23;;;;;;;6.74;100.00;95587.78;5046839;28;20649;-70
2021/12/25 09:51:14;;;;;;;8.23;6.30;;;;;;;6.73;100.00;95587.94;5060088;28;20203;-70
2021/12/25 09:53:41;;;;;;;7.00;6.03;;;;;;;6.78;100.00;95596.19;5068329;28;20572;-69
2021/12/25 09:56:07;;;;;;;7.07;5.40;;;;;;;6.74;100.00;95586.94;5082444;28;20232;-71
2021/12/25 09:58:34;;;;;;;5.70;5.03;;;;;;;6.70;100.00;95590.84;5077703;28;20210;-71
2021/12/25 10:01:02;;;;;;;6.20;4.77;;;;;;;6.69;100.00;95584.78;5077796;28;20199;-70
2021/12/25 10:03:43;;;;;;;5.17;4.67;;;;;;;6.70;100.00;95570.66;5077290;28;20206;-70
2021/12/25 10:06:10;;;;;;;3.53;3.13;;;;;;;6.65;100.00;95559.78;5077453;28;20183;-70
2021/12/25 10:08:39;;;;;;;3.17;2.97;;;;;;;6.75;100.00;95573.69;5066799;28;20286;-69
2021/12/25 10:11:05;;;;;;;5.57;4.90;;;;;;;6.83;100.00;95581.66;5056958;28;20207;-70
2021/12/25 10:13:35;;;;;;;6.27;4.90;;;;;;;6.84;100.00;95591.19;5057159;28;20211;-71
2021/12/25 10:16:19;;;;;;;4.77;4.33;;;;;;;6.84;100.00;95596.44;5073610;28;20202;-70
2021/12/25 10:18:46;;;;;;;4.70;4.30;;;;;;;6.88;100.00;95595.19;5076801;28;20226;-71
2021/12/25 10:21:21;;;;;;;4.73;4.10;;;;;;;6.92;100.00;95598.34;5077266;28;20210;-70
2021/12/25 10:24:03;;;;;;;4.33;3.93;;;;;;;6.91;100.00;95609.81;5076770;28;20202;-69
2021/12/25 10:26:30;;;;;;;6.60;4.17;;;;;;;6.94;100.00;95620.06;5076831;28;20268;-69
2021/12/25 10:28:56;;;;;;;5.33;4.33;;;;;;;6.95;100.00;95603.31;5077551;28;20521;-71
2021/12/25 10:31:32;;;;;;;5.37;4.43;;;;;;;6.96;100.00;95613.69;5096625;28;20207;-71
2021/12/25 10:33:58;;;;;;;4.50;4.10;;;;;;;6.93;100.00;95624.50;5081300;28;20314;-70
2021/12/25 10:36:27;;;;;;;4.80;4.40;;;;;;;6.93;100.00;95634.16;5067710;28;20552;-69
2021/12/25 10:38:58;;;;;;;4.93;4.37;;;;;;;6.94;100.00;95649.78;5060850;28;20305;-70
2021/12/25 10:41:24;;;;;;;4.33;3.93;;;;;;;6.91;100.00;95650.06;5076422;28;20563;-70
2021/12/25 10:43:53;;;;;;;5.27;4.77;;;;;;;6.85;100.00;95648.03;5076665;28;20202;-70
2021/12/25 10:46:20;;;;;;;4.83;4.33;;;;;;;6.83;100.00;95642.09;5075395;28;20297;-70
2021/12/25 10:48:48;;;;;;;6.13;5.30;;;;;;;6.83;100.00;95649.97;5055285;28;20214;-70
2021/12/25 10:51:29;;;;;;;4.90;4.50;;;;;;;6.87;100.00;95645.28;5056099;28;20630;-69
2021/12/25 10:53:57;;;;;;;4.80;4.40;;;;;;;6.84;100.00;95635.03;5055792;28;20215;-69
2021/12/25 10:56:23;;;;;;;5.10;4.40;;;;;;;6.92;100.00;95630.72;5068274;28;20198;-70
2021/12/25 10:58:51;;;;;;;4.60;4.20;;;;;;;7.00;100.00;95628.19;5074787;28;20237;-70
2021/12/25 11:01:18;;;;;;;4.23;3.83;;;;;;;7.15;100.00;95618.00;5055296;28;20618;-69
2021/12/25 11:03:46;;;;;;;4.23;3.90;;;;;;;7.13;100.00;95616.50;5061116;28;20234;-71
2021/12/25 11:06:17;;;;;;;4.53;4.13;;;;;;;7.17;100.00;95617.84;5059162;28;20210;-71
2021/12/25 11:08:44;;;;;;;4.77;4.37;;;;;;;7.12;100.00;95604.34;5055904;28;20669;-70
2021/12/25 11:11:12;;;;;;;5.07;4.40;;;;;;;7.07;100.00;95603.94;5055480;28;20591;-71
2021/12/25 11:13:41;;;;;;;5.57;4.50;;;;;;;6.85;100.00;95587.59;5055578;28;20289;-69
2021/12/25 11:16:27;;;;;;;4.37;4.03;;;;;;;6.94;100.00;95599.03;5055207;28;20207;-70
2021/12/25 11:19:04;;;;;;;5.60;4.17;;;;;;;7.13;100.00;95598.91;5054872;28;20211;-71
2021/12/25 11:21:34;;;;;;;5.07;4.60;;;;;;;7.15;100.00;95594.34;5055805;28;20206;-68
2021/12/25 11:24:09;;;;;;;5.00;4.60;;;;;;;7.25;100.00;95592.50;5068972;28;20210;-70
2021/12/25 11:26:37;;;;;;;4.93;4.53;;;;;;;7.35;99.45;95576.63;5072671;28;20203;-70
2021/12/25 11:29:04;;;;;;;5.07;4.63;;;;;;;7.13;100.00;95571.78;5064596;28;20196;-70
2021/12/25 11:31:31;;;;;;;4.83;4.43;;;;;;;7.03;100.00;95584.16;5068352;28;20207;-71
2021/12/25 11:33:58;;;;;;;4.57;4.17;;;;;;;7.02;100.00;95578.09;5069469;28;20203;-68
2021/12/25 11:36:25;;;;;;;4.80;4.30;;;;;;;6.97;100.00;95578.56;5057382;28;20639;-70
2021/12/25 11:38:53;;;;;;;5.10;4.50;;;;;;;7.01;100.00;95577.25;5055803;28;20227;-70
2021/12/25 11:41:19;;;;;;;4.43;4.03;;;;;;;6.99;100.00;95571.34;5055463;28;20242;-71
2021/12/25 11:43:47;;;;;;;4.17;3.87;;;;;;;6.98;100.00;95561.78;5055258;28;20230;-71
2021/12/25 11:46:15;;;;;;;5.07;4.57;;;;;;;6.93;100.00;95556.16;5054970;28;20272;-69
2021/12/25 11:48:42;;;;;;;4.77;3.90;;;;;;;6.98;100.00;95543.38;5055998;28;20523;-71
2021/12/25 11:51:27;;;;;;;4.47;4.10;;;;;;;7.03;100.00;95544.75;5056974;28;20203;-70
2021/12/25 11:54:08;;;;;;;3.60;3.30;;;;;;;7.10;100.00;95530.03;5075357;28;20210;-70
2021/12/25 11:56:50;;;;;;;2.40;2.30;;;;;;;7.29;100.00;95524.66;5076616;28;20215;-70
2021/12/25 11:59:18;;;;;;;2.93;2.73;;;;;;;7.34;100.00;95519.75;5053739;28;20218;-71
2021/12/25 12:01:48;;;;;;;5.13;4.10;;;;;;;7.29;100.00;95520.22;5052647;28;20199;-70
2021/12/25 12:04:16;;;;;;;5.20;4.57;;;;;;;7.24;100.00;95526.88;5067569;28;20260;-71
2021/12/25 12:07:06;;;;;;;5.40;3.97;;;;;;;7.08;100.00;95530.22;5056453;28;20218;-70
2021/12/25 12:09:35;;;;;;;5.07;4.00;;;;;;;7.01;100.00;95527.31;5054761;28;20825;-71
2021/12/25 12:12:13;;;;;;;4.17;3.67;;;;;;;7.08;100.00;95518.84;5056131;28;20206;-70
2021/12/25 12:14:40;;;;;;;4.63;4.17;;;;;;;7.07;100.00;95514.56;5055142;28;20211;-70
2021/12/25 12:17:08;;;;;;;6.37;4.00;;;;;;;7.16;100.00;95521.53;5055029;28;20203;-70
2021/12/25 12:19:45;;;;;;;4.77;4.10;;;;;;;7.22;100.00;95520.97;5057630;28;20218;-69
2021/12/25 12:22:58;;;;;;;4.93;4.17;;;;;;;7.30;100.00;95521.84;5066645;28;20210;-71
2021/12/25 12:25:42;;;;;;;4.67;4.27;;;;;;;7.39;99.74;95541.19;5075386;28;20202;-69
2021/12/25 12:28:09;;;;;;;6.07;4.17;;;;;;;7.31;100.00;95531.41;5074299;28;20198;-71
2021/12/25 12:30:39;;;;;;;4.30;3.90;;;;;;;7.31;100.00;95548.97;5075664;28;20214;-69